Time;durP1;ratioP1;P1;durP2;ratioP2;P2;SDS_P1;SDS_P2;PMS_P1;PMS_P2;Temp;Humidity;BMP_temperature;BMP_pressure;BME280_temperature;BME280_humidity;BME280_pressure;Samples;Min_cycle;Max_cycle;Signal;HPM_P1;HPM_P2
2022/04/26 03:38:18;;;;;;;22.03;19.77;;;9.50;99.90;;;;;;10395833;28;20217;-68
2022/04/26 03:43:18;;;;;;;23.27;20.90;;;9.40;99.90;;;;;;10384229;28;20235;-69
2022/04/26 03:48:19;;;;;;;22.80;20.33;;;9.40;99.90;;;;;;10388477;28;20226;-69
2022/04/26 03:53:20;;;;;;;25.17;21.47;;;9.50;99.90;;;;;;10393692;28;20240;-70
2022/04/26 03:58:21;;;;;;;24.70;22.17;;;9.50;99.90;;;;;;10391018;28;20599;-69
2022/04/26 04:03:21;;;;;;;24.00;20.93;;;9.60;99.90;;;;;;10390279;28;20841;-69
2022/04/26 04:08:22;;;;;;;24.47;21.43;;;9.70;99.90;;;;;;10387450;28;20308;-69
2022/04/26 04:13:23;;;;;;;26.30;22.93;;;9.70;99.90;;;;;;10391926;28;20221;-67
2022/04/26 04:23:43;;;;;;;30.47;25.60;;;9.60;99.90;;;;;;10391233;28;20216;-67
2022/04/26 04:28:44;;;;;;;27.93;24.17;;;9.60;99.90;;;;;;10385811;28;20704;-67
2022/04/26 04:33:45;;;;;;;28.60;25.53;;;9.60;99.90;;;;;;10402804;28;20220;-68
2022/04/26 04:38:45;;;;;;;26.67;23.77;;;9.70;99.90;;;;;;10393663;28;20220;-68
2022/04/26 04:43:46;;;;;;;26.67;23.63;;;9.80;99.90;;;;;;10400089;28;20228;-68
2022/04/26 04:48:46;;;;;;;26.43;23.47;;;9.80;99.90;;;;;;10392791;28;20596;-68
2022/04/26 04:53:47;;;;;;;25.77;22.93;;;9.80;99.90;;;;;;10383705;28;20220;-68
2022/04/26 04:58:47;;;;;;;22.93;20.47;;;9.80;99.90;;;;;;10384059;28;20278;-68
2022/04/26 05:03:48;;;;;;;24.17;21.57;;;9.80;99.90;;;;;;10390330;28;20230;-70
2022/04/26 05:08:49;;;;;;;23.03;20.53;;;9.80;99.90;;;;;;10391211;28;20216;-68
2022/04/26 05:13:49;;;;;;;25.77;20.97;;;9.80;99.90;;;;;;10384096;28;20217;-68
2022/04/26 05:18:50;;;;;;;26.53;21.37;;;9.80;99.90;;;;;;10389532;28;20280;-67
2022/04/26 05:29:10;;;;;;;22.07;19.70;;;9.90;99.90;;;;;;10385431;28;20304;-69
2022/04/26 05:34:10;;;;;;;21.57;18.93;;;9.90;99.90;;;;;;10396624;28;20310;-68
2022/04/26 05:39:11;;;;;;;21.63;19.33;;;10.00;99.90;;;;;;10398625;28;20224;-69
2022/04/26 05:44:11;;;;;;;21.77;19.10;;;10.00;99.90;;;;;;10400739;28;20311;-68
2022/04/26 05:49:12;;;;;;;20.67;18.47;;;10.10;99.90;;;;;;10396326;28;20212;-69
2022/04/26 05:54:12;;;;;;;24.60;20.37;;;10.20;99.90;;;;;;10399692;28;20224;-69
2022/04/26 05:59:13;;;;;;;23.03;20.60;;;10.20;99.90;;;;;;10395683;28;20225;-68
2022/04/26 06:04:14;;;;;;;23.87;20.73;;;10.10;99.90;;;;;;10392837;28;20268;-67
2022/04/26 06:09:14;;;;;;;20.40;17.67;;;10.00;99.90;;;;;;10395229;28;20243;-69
2022/04/26 06:14:15;;;;;;;18.57;16.57;;;10.00;99.90;;;;;;10398308;28;20221;-68
2022/04/26 06:19:16;;;;;;;19.53;16.60;;;10.10;99.90;;;;;;10384943;28;20264;-68
2022/04/26 06:24:17;;;;;;;18.73;16.73;;;10.10;99.90;;;;;;10402089;28;20894;-69
2022/04/26 06:29:17;;;;;;;18.73;16.73;;;10.20;99.90;;;;;;10392124;28;20723;-69
2022/04/26 06:34:18;;;;;;;18.73;16.33;;;10.20;99.90;;;;;;10387623;28;20225;-70
2022/04/26 06:39:18;;;;;;;17.93;16.00;;;10.20;99.90;;;;;;10399510;28;20225;-68
2022/04/26 06:44:19;;;;;;;17.57;15.73;;;10.10;99.90;;;;;;10393395;28;20229;-67
2022/04/26 06:49:19;;;;;;;17.47;15.67;;;10.20;99.90;;;;;;10388475;28;20690;-68
2022/04/26 06:54:23;;;;;;;20.10;18.00;;;10.10;99.90;;;;;;10403812;28;20279;-68
2022/04/26 06:59:24;;;;;;;17.00;15.20;;;10.20;99.90;;;;;;10392475;28;20232;-68
2022/04/26 07:04:24;;;;;;;18.93;15.97;;;10.20;99.90;;;;;;10383360;28;20233;-68
2022/04/26 07:09:25;;;;;;;18.53;16.73;;;10.30;99.90;;;;;;10387373;28;20229;-68
2022/04/26 07:14:25;;;;;;;17.60;15.90;;;10.40;99.90;;;;;;10391820;28;20263;-68
2022/04/26 07:19:27;;;;;;;15.97;14.40;;;10.50;99.90;;;;;;10399919;28;20217;-69
2022/04/26 07:24:27;;;;;;;15.10;13.60;;;10.60;99.90;;;;;;10391718;28;20233;-68
2022/04/26 07:29:28;;;;;;;14.67;13.17;;;10.70;99.90;;;;;;10395276;28;20231;-68
2022/04/26 07:34:29;;;;;;;16.00;14.30;;;10.90;99.90;;;;;;10389900;28;20217;-69
2022/04/26 07:39:33;;;;;;;14.97;13.47;;;10.90;99.90;;;;;;10386078;28;20228;-69
2022/04/26 07:44:35;;;;;;;14.80;13.20;;;11.00;99.90;;;;;;10390309;28;20905;-68
2022/04/26 07:49:38;;;;;;;12.87;11.67;;;11.10;99.90;;;;;;10386602;28;20217;-68
2022/04/26 07:54:39;;;;;;;14.33;12.63;;;11.40;99.90;;;;;;10392994;28;20766;-68
2022/04/26 07:59:40;;;;;;;11.03;10.00;;;11.70;99.90;;;;;;10398592;28;20216;-68
2022/04/26 08:04:41;;;;;;;11.97;10.77;;;11.80;99.90;;;;;;10386041;28;20641;-68
2022/04/26 08:09:43;;;;;;;10.10;9.10;;;11.70;99.90;;;;;;10384162;28;20227;-69
2022/04/26 08:14:43;;;;;;;13.10;10.60;;;11.60;99.90;;;;;;10386742;28;20221;-67
2022/04/26 08:19:44;;;;;;;9.00;8.10;;;11.60;99.90;;;;;;10386354;28;20218;-68
2022/04/26 08:30:05;;;;;;;8.20;7.47;;;11.60;99.90;;;;;;10386882;28;20221;-69
2022/04/26 08:35:06;;;;;;;8.47;6.63;;;11.50;99.90;;;;;;10391003;28;20299;-69
2022/04/26 08:40:08;;;;;;;7.53;6.83;;;11.50;99.90;;;;;;10383436;28;20661;-68
2022/04/26 08:45:10;;;;;;;7.87;7.07;;;11.60;99.90;;;;;;10393080;28;20181;-68
2022/04/26 08:55:31;;;;;;;6.10;5.50;;;12.30;99.90;;;;;;10386474;28;20340;-68
2022/04/26 09:00:32;;;;;;;5.93;5.00;;;12.50;99.90;;;;;;10388385;28;20245;-69
2022/04/26 09:05:33;;;;;;;5.47;4.97;;;12.60;99.90;;;;;;10388056;28;20318;-69
2022/04/26 09:10:33;;;;;;;4.60;4.20;;;12.60;99.90;;;;;;10390384;28;20236;-68
2022/04/26 09:15:49;;;;;;;4.70;3.87;;;12.70;99.90;;;;;;10385400;28;20666;-68
2022/04/26 09:20:52;;;;;;;3.80;3.50;;;12.90;99.90;;;;;;10389777;28;20237;-68
2022/04/26 09:26:06;;;;;;;4.27;3.97;;;12.90;99.90;;;;;;10381536;28;20228;-68
2022/04/26 09:31:25;;;;;;;3.83;3.27;;;13.00;99.90;;;;;;10390533;28;20221;-68
2022/04/26 09:36:32;;;;;;;3.30;3.10;;;13.00;99.90;;;;;;10394844;28;20283;-67
2022/04/26 09:41:33;;;;;;;3.83;3.40;;;13.20;99.90;;;;;;10388165;28;20758;-68
2022/04/26 09:46:40;;;;;;;4.07;3.67;;;14.00;99.90;;;;;;10383218;28;20228;-67
2022/04/26 09:51:42;;;;;;;6.90;4.17;;;14.60;99.90;;;;;;10391578;28;20594;-68
2022/04/26 09:56:45;;;;;;;4.10;3.63;;;14.50;99.90;;;;;;10383145;28;20230;-69
2022/04/26 10:01:47;;;;;;;5.07;3.90;;;14.50;99.90;;;;;;10388707;28;20224;-68
2022/04/26 10:06:51;;;;;;;4.23;3.90;;;14.70;99.90;;;;;;10383956;28;20229;-68
2022/04/26 10:12:01;;;;;;;3.60;3.30;;;14.60;99.90;;;;;;10389446;28;20226;-69
2022/04/26 10:17:02;;;;;;;3.10;2.80;;;14.60;99.90;;;;;;10383115;28;20225;-68
2022/04/26 10:22:03;;;;;;;2.10;1.97;;;14.60;99.90;;;;;;10388480;28;20252;-68
2022/04/26 10:27:20;;;;;;;2.20;2.00;;;14.40;99.90;;;;;;10395826;28;20219;-69
2022/04/26 10:32:31;;;;;;;0.80;0.80;;;14.70;99.90;;;;;;10403369;28;20235;-69
2022/04/26 10:37:32;;;;;;;1.57;1.10;;;15.40;99.90;;;;;;10396021;28;20297;-69
2022/04/26 10:42:35;;;;;;;0.60;0.60;;;15.60;99.90;;;;;;10395595;28;20237;-69
2022/04/26 10:47:36;;;;;;;0.37;0.37;;;15.60;99.90;;;;;;10387997;28;20220;-69
2022/04/26 10:52:40;;;;;;;2.30;1.10;;;15.80;99.90;;;;;;10389863;28;20704;-69
2022/04/26 10:57:46;;;;;;;2.03;1.37;;;16.00;99.90;;;;;;10371950;28;20226;-69
2022/04/26 11:02:50;;;;;;;1.27;0.83;;;16.20;99.90;;;;;;10394735;28;20230;-69
2022/04/26 11:07:52;;;;;;;1.03;0.97;;;16.10;99.90;;;;;;10387588;28;20267;-68
2022/04/26 11:12:55;;;;;;;0.80;0.70;;;15.20;99.90;;;;;;10395231;28;20220;-68
2022/04/26 11:17:56;;;;;;;3.17;0.70;;;14.50;99.90;;;;;;10387130;28;20227;-69
2022/04/26 11:27:59;;;;;;;3.93;0.97;;;14.00;99.90;;;;;;10386452;28;20229;-68
2022/04/26 11:28:18;;;;;;;1.40;0.83;;;13.90;99.90;;;;;;10390887;28;20272;-68
2022/04/26 11:33:23;;;;;;;1.10;1.10;;;13.80;99.90;;;;;;10384722;28;20567;-68
2022/04/26 11:38:27;;;;;;;1.00;1.00;;;13.60;99.90;;;;;;10390147;28;20226;-68
2022/04/26 11:43:33;;;;;;;1.13;0.73;;;13.50;99.90;;;;;;10395746;28;20237;-68
2022/04/26 11:48:36;;;;;;;1.70;1.17;;;13.20;99.90;;;;;;10392577;28;20435;-69
2022/04/26 11:53:37;;;;;;;1.27;1.17;;;13.10;99.90;;;;;;10388148;28;20228;-68
2022/04/26 11:58:39;;;;;;;1.70;1.60;;;13.20;99.90;;;;;;10390698;28;20221;-69
2022/04/26 12:03:48;;;;;;;3.20;2.23;;;13.20;99.90;;;;;;10387158;28;20259;-69
2022/04/26 12:08:54;;;;;;;2.00;1.90;;;13.10;99.90;;;;;;10401138;28;20217;-68
2022/04/26 12:14:16;;;;;;;1.70;1.60;;;12.70;99.90;;;;;;10383854;28;20232;-68
2022/04/26 12:19:22;;;;;;;2.57;1.73;;;12.40;99.90;;;;;;10389073;28;20235;-68
2022/04/26 12:24:30;;;;;;;2.40;2.20;;;12.20;99.90;;;;;;10394558;28;20224;-69
2022/04/26 12:29:40;;;;;;;2.63;2.10;;;11.80;99.90;;;;;;10386635;28;20672;-70
2022/04/26 12:34:50;;;;;;;2.23;2.00;;;11.50;99.90;;;;;;10393025;28;20641;-68
2022/04/26 12:39:53;;;;;;;2.53;2.33;;;11.30;99.90;;;;;;10395176;28;20220;-70
2022/04/26 12:45:06;;;;;;;2.47;2.27;;;11.40;99.90;;;;;;10398765;28;20721;-69
2022/04/26 12:50:35;;;;;;;2.63;2.00;;;11.30;99.90;;;;;;10384550;28;20224;-68
2022/04/26 12:55:43;;;;;;;2.63;1.73;;;11.40;99.90;;;;;;10382594;28;20222;-68
2022/04/26 13:00:46;;;;;;;3.47;1.30;;;11.60;99.90;;;;;;10389798;28;20224;-69
2022/04/26 13:06:03;;;;;;;1.73;1.10;;;11.70;99.90;;;;;;10392098;28;20221;-69
2022/04/26 13:11:05;;;;;;;1.33;0.70;;;11.90;99.90;;;;;;10383057;28;20221;-68
2022/04/26 13:16:08;;;;;;;0.77;0.70;;;12.10;99.90;;;;;;10390119;28;20789;-68
2022/04/26 13:21:08;;;;;;;0.80;0.80;;;12.70;99.90;;;;;;10385317;28;20255;-68
2022/04/26 13:26:09;;;;;;;1.23;1.10;;;13.00;99.90;;;;;;10390968;28;20215;-70
2022/04/26 13:31:10;;;;;;;1.27;1.13;;;13.00;99.90;;;;;;10388678;28;20220;-69
2022/04/26 13:36:10;;;;;;;1.00;0.90;;;13.30;99.90;;;;;;10382962;28;20759;-68
2022/04/26 13:41:11;;;;;;;1.40;1.30;;;13.30;99.90;;;;;;10387945;28;20227;-69
2022/04/26 13:46:12;;;;;;;1.87;1.30;;;13.40;99.90;;;;;;10388862;28;20230;-69
2022/04/26 13:51:13;;;;;;;1.43;1.33;;;13.60;99.90;;;;;;10384993;28;20217;-69
2022/04/26 13:56:13;;;;;;;2.33;1.30;;;13.30;99.90;;;;;;10394562;28;20225;-69
2022/04/26 14:01:14;;;;;;;1.87;1.40;;;13.50;99.90;;;;;;10390695;28;20236;-69
2022/04/26 14:06:15;;;;;;;2.40;1.60;;;13.60;99.90;;;;;;10397822;28;20759;-68
2022/04/26 14:11:21;;;;;;;1.53;1.37;;;13.70;99.90;;;;;;10405905;28;20258;-67
2022/04/26 14:21:47;;;;;;;1.23;1.13;;;13.80;99.90;;;;;;10407485;28;20287;-68
2022/04/26 14:26:49;;;;;;;0.97;0.97;;;13.80;99.90;;;;;;10398271;28;20220;-68
2022/04/26 14:31:51;;;;;;;1.67;0.97;;;13.80;99.90;;;;;;10388143;28;20306;-69
2022/04/26 14:36:51;;;;;;;0.70;0.70;;;14.20;99.90;;;;;;10396995;28;20244;-67
2022/04/26 14:41:53;;;;;;;1.23;1.13;;;14.90;99.90;;;;;;10390191;28;20775;-68
2022/04/26 14:46:54;;;;;;;2.50;1.00;;;15.50;99.90;;;;;;10404147;28;20209;-68
2022/04/26 14:51:54;;;;;;;1.50;1.40;;;16.10;99.90;;;;;;10387576;28;20230;-69
2022/04/26 14:56:55;;;;;;;1.30;1.20;;;16.30;99.90;;;;;;10389337;28;20223;-69
2022/04/26 15:01:56;;;;;;;1.90;1.23;;;16.10;99.90;;;;;;10396103;28;20225;-68
2022/04/26 15:06:57;;;;;;;1.30;1.20;;;15.50;99.90;;;;;;10390000;28;20218;-69
2022/04/26 15:17:20;;;;;;;3.00;2.80;;;14.60;99.90;;;;;;10395364;28;20307;-69
2022/04/26 15:22:21;;;;;;;4.40;3.40;;;14.10;99.90;;;;;;10386066;28;20239;-68
2022/04/26 15:27:21;;;;;;;4.50;4.10;;;13.70;99.90;;;;;;10389829;28;20240;-69
2022/04/26 15:32:23;;;;;;;4.20;3.80;;;13.30;99.90;;;;;;10385096;28;20250;-69
2022/04/26 15:37:28;;;;;;;7.23;4.50;;;13.50;99.90;;;;;;10399372;28;20206;-69
2022/04/26 15:42:31;;;;;;;6.13;4.00;;;13.50;99.90;;;;;;10395948;28;20229;-68
2022/04/26 15:47:33;;;;;;;4.77;4.30;;;13.10;99.90;;;;;;10397279;28;20310;-67
2022/04/26 15:52:38;;;;;;;4.40;4.10;;;13.00;99.90;;;;;;10394986;28;20221;-68
2022/04/26 15:57:39;;;;;;;8.90;4.50;;;12.80;99.90;;;;;;10386874;28;20235;-68
2022/04/26 16:02:43;;;;;;;5.03;4.53;;;12.70;99.90;;;;;;10391335;28;20239;-69
2022/04/26 16:07:45;;;;;;;5.87;4.83;;;12.70;99.90;;;;;;10393256;28;20212;-67
2022/04/26 16:23:27;;;;;;;6.20;5.50;;;12.10;99.90;;;;;;10392835;28;20216;-68
2022/04/26 16:28:32;;;;;;;6.13;5.53;;;11.90;99.90;;;;;;10388750;28;20703;-68
2022/04/26 16:33:33;;;;;;;7.97;6.27;;;11.80;99.90;;;;;;10388311;28;20212;-70
2022/04/26 16:38:35;;;;;;;10.03;6.70;;;11.80;99.90;;;;;;10396634;28;20699;-69
2022/04/26 16:43:36;;;;;;;7.77;6.27;;;11.70;99.90;;;;;;10387592;28;20685;-67
2022/04/26 16:48:37;;;;;;;7.70;6.27;;;11.60;99.90;;;;;;10385634;28;20223;-68
2022/04/26 16:53:38;;;;;;;7.17;5.30;;;11.50;99.90;;;;;;10388819;28;20305;-69
2022/04/26 16:58:42;;;;;;;6.17;5.57;;;11.50;99.90;;;;;;10392341;28;20266;-68
2022/04/26 17:03:42;;;;;;;6.77;6.07;;;11.40;99.90;;;;;;10390296;28;20708;-68
2022/04/26 17:08:46;;;;;;;7.33;6.10;;;11.40;99.90;;;;;;10390696;28;20212;-68
2022/04/26 17:13:46;;;;;;;8.73;7.00;;;11.40;99.90;;;;;;10384387;28;20228;-69
2022/04/26 17:18:47;;;;;;;8.13;7.10;;;11.40;99.90;;;;;;10390777;28;20216;-69
2022/04/26 17:23:47;;;;;;;7.50;6.53;;;11.30;99.90;;;;;;10384463;28;20363;-68
2022/04/26 17:28:48;;;;;;;9.97;6.60;;;11.30;99.90;;;;;;10390461;28;20216;-68
2022/04/26 17:33:52;;;;;;;7.40;6.70;;;11.20;99.90;;;;;;10384153;28;20224;-69
2022/04/26 17:38:52;;;;;;;8.93;7.70;;;11.20;99.90;;;;;;10390885;28;20217;-69
2022/04/26 17:43:53;;;;;;;6.63;5.83;;;11.10;99.90;;;;;;10395862;28;20290;-67
2022/04/26 17:48:54;;;;;;;7.60;5.90;;;11.10;99.90;;;;;;10382420;28;20224;-67
2022/04/26 17:59:13;;;;;;;7.77;6.80;;;10.90;99.90;;;;;;10385428;28;20744;-68
2022/04/26 18:04:15;;;;;;;7.67;6.93;;;10.90;99.90;;;;;;10383193;28;20312;-69
2022/04/26 18:09:15;;;;;;;6.63;6.00;;;10.80;99.90;;;;;;10383261;28;20621;-71
2022/04/26 18:14:17;;;;;;;8.17;5.47;;;10.70;99.90;;;;;;10387345;28;20225;-69
2022/04/26 18:19:17;;;;;;;6.30;5.70;;;10.70;99.90;;;;;;10382300;28;20647;-68
2022/04/26 18:24:19;;;;;;;6.40;5.70;;;10.70;99.90;;;;;;10383580;28;20227;-69
2022/04/26 18:29:19;;;;;;;8.10;7.03;;;10.60;99.90;;;;;;10397440;28;20744;-68
2022/04/26 18:34:20;;;;;;;6.67;6.07;;;10.60;99.90;;;;;;10382071;28;20280;-68
2022/04/26 18:39:21;;;;;;;6.90;6.17;;;10.50;99.90;;;;;;10380052;28;20606;-67
2022/04/26 18:44:23;;;;;;;9.47;6.30;;;10.40;99.90;;;;;;10395452;28;20221;-68
2022/04/26 18:49:28;;;;;;;6.43;5.83;;;10.40;99.90;;;;;;10392314;28;20221;-68
2022/04/26 18:54:29;;;;;;;7.77;5.90;;;10.30;99.90;;;;;;10396061;28;20638;-70
2022/04/26 18:59:29;;;;;;;8.97;6.10;;;10.30;99.90;;;;;;10388096;28;20236;-68
2022/04/26 19:04:30;;;;;;;7.13;6.03;;;10.20;99.90;;;;;;10392809;28;20227;-69
2022/04/26 19:09:31;;;;;;;7.03;5.73;;;10.20;99.90;;;;;;10398541;28;20217;-67
2022/04/26 19:14:31;;;;;;;6.07;5.47;;;10.10;99.90;;;;;;10392826;28;20243;-68
2022/04/26 19:19:32;;;;;;;6.63;5.23;;;10.20;99.90;;;;;;10397691;28;20312;-68
2022/04/26 19:24:32;;;;;;;7.83;5.97;;;10.20;99.90;;;;;;10389200;28;20217;-68
2022/04/26 19:29:33;;;;;;;6.57;5.87;;;10.10;99.90;;;;;;10393112;28;20244;-68
2022/04/26 19:34:34;;;;;;;6.00;5.20;;;10.20;99.90;;;;;;10382894;28;20702;-68
2022/04/26 19:39:35;;;;;;;6.73;6.03;;;10.10;99.90;;;;;;10398411;28;20233;-69
2022/04/26 19:44:35;;;;;;;6.63;5.90;;;10.20;99.90;;;;;;10393792;28;20316;-71
2022/04/26 19:49:39;;;;;;;6.60;6.00;;;10.20;99.90;;;;;;10383610;28;20232;-68
2022/04/26 19:54:39;;;;;;;6.17;5.57;;;10.10;99.90;;;;;;10394705;28;20881;-71
2022/04/26 19:59:41;;;;;;;6.50;5.63;;;10.10;99.90;;;;;;10392591;28;20263;-69
2022/04/26 20:04:41;;;;;;;9.13;6.90;;;10.10;99.90;;;;;;10394976;28;20289;-70
2022/04/26 20:09:44;;;;;;;8.17;7.37;;;10.00;99.90;;;;;;10387771;28;20806;-69
2022/04/26 20:14:44;;;;;;;7.80;7.00;;;9.90;99.90;;;;;;10394642;28;20228;-69
2022/04/26 20:19:45;;;;;;;8.80;7.10;;;9.80;99.90;;;;;;10405658;28;20220;-69
2022/04/26 20:24:46;;;;;;;7.90;6.87;;;9.80;99.90;;;;;;10392889;28;20223;-68
2022/04/26 20:29:46;;;;;;;9.00;6.67;;;9.80;99.90;;;;;;10388133;28;20272;-70
2022/04/26 20:34:49;;;;;;;8.50;7.60;;;9.70;99.90;;;;;;10393380;28;20644;-69
2022/04/26 20:39:50;;;;;;;8.20;7.20;;;9.70;99.90;;;;;;10390844;28;20746;-69
2022/04/26 20:44:51;;;;;;;9.83;7.83;;;9.60;99.90;;;;;;10394101;28;20282;-70
2022/04/26 20:49:53;;;;;;;7.80;7.00;;;9.50;99.90;;;;;;10399896;28;20216;-69
2022/04/26 20:54:54;;;;;;;8.20;7.33;;;9.50;99.90;;;;;;10399592;28;20224;-69
2022/04/26 20:59:54;;;;;;;8.47;7.17;;;9.50;99.90;;;;;;10383875;28;20721;-70
2022/04/26 21:04:55;;;;;;;8.60;7.70;;;9.40;99.90;;;;;;10399448;28;20245;-69
2022/04/26 21:09:55;;;;;;;7.90;7.10;;;9.40;99.90;;;;;;10387817;28;20288;-69
2022/04/26 21:14:59;;;;;;;8.87;7.90;;;9.50;99.90;;;;;;10391634;28;20256;-69
2022/04/26 21:20:00;;;;;;;10.50;9.40;;;9.50;99.90;;;;;;10384791;28;20225;-69
2022/04/26 21:25:00;;;;;;;11.70;9.70;;;9.50;99.90;;;;;;10384099;28;20303;-69
2022/04/26 21:30:01;;;;;;;9.47;8.47;;;9.50;99.90;;;;;;10391119;28;20227;-68
2022/04/26 21:35:01;;;;;;;9.57;8.60;;;9.60;99.90;;;;;;10390641;28;20220;-68
2022/04/26 21:40:03;;;;;;;10.43;9.17;;;9.60;99.90;;;;;;10384332;28;20653;-69
2022/04/26 21:45:04;;;;;;;9.47;8.50;;;9.60;99.90;;;;;;10397815;28;20303;-69
2022/04/26 21:55:24;;;;;;;8.57;7.77;;;9.50;99.90;;;;;;10388572;28;20227;-69
2022/04/26 22:00:25;;;;;;;8.10;7.30;;;9.50;99.90;;;;;;10386854;28;20220;-68
2022/04/26 22:05:28;;;;;;;8.90;8.10;;;9.50;99.90;;;;;;10386652;28;20232;-69
2022/04/26 22:10:29;;;;;;;8.70;7.50;;;9.40;99.90;;;;;;10386269;28;20274;-68
2022/04/26 22:15:30;;;;;;;9.27;8.30;;;9.30;99.90;;;;;;10383778;28;20224;-69
2022/04/26 22:20:34;;;;;;;9.60;8.53;;;9.30;99.90;;;;;;10393741;28;20526;-69
2022/04/26 22:25:39;;;;;;;9.27;8.37;;;9.40;99.90;;;;;;10408180;28;20228;-68
2022/04/26 22:30:40;;;;;;;9.87;8.87;;;9.40;99.90;;;;;;10392964;28;20772;-69
2022/04/26 22:35:41;;;;;;;9.80;8.73;;;9.50;99.90;;;;;;10385061;28;20311;-68
2022/04/26 22:40:42;;;;;;;9.20;8.30;;;9.50;99.90;;;;;;10396015;28;20235;-70
2022/04/26 22:45:43;;;;;;;9.53;8.63;;;9.60;99.90;;;;;;10390809;28;20216;-68
2022/04/26 22:50:44;;;;;;;8.83;7.73;;;9.60;99.90;;;;;;10396004;28;20212;-70
2022/04/26 22:55:44;;;;;;;9.07;8.13;;;9.60;99.90;;;;;;10395065;28;20209;-69
2022/04/26 23:00:45;;;;;;;9.47;8.57;;;9.60;99.90;;;;;;10393543;28;20442;-69
2022/04/26 23:05:47;;;;;;;10.07;8.60;;;9.60;99.90;;;;;;10388383;28;20220;-69
2022/04/26 23:10:47;;;;;;;10.13;9.03;;;9.60;99.90;;;;;;10388718;28;20585;-69
2022/04/26 23:15:51;;;;;;;9.87;8.83;;;9.60;99.90;;;;;;10393886;28;20224;-69
2022/04/26 23:20:51;;;;;;;10.10;9.03;;;9.60;99.90;;;;;;10396392;28;20212;-69
2022/04/26 23:25:52;;;;;;;10.07;8.97;;;9.50;99.90;;;;;;10387521;28;20252;-68
2022/04/26 23:30:54;;;;;;;11.80;9.77;;;9.50;99.90;;;;;;10394339;28;20224;-69
2022/04/26 23:35:55;;;;;;;10.67;9.60;;;9.50;99.90;;;;;;10386801;28;20345;-69
2022/04/26 23:40:56;;;;;;;10.80;9.80;;;9.40;99.90;;;;;;10395242;28;20251;-69
2022/04/26 23:45:59;;;;;;;10.57;9.53;;;9.40;99.90;;;;;;10387358;28;20753;-69
2022/04/26 23:56:30;;;;;;;10.27;9.27;;;9.50;99.90;;;;;;10387987;28;20313;-69
